createdAt,value
2022-12-03T00:02:31.213Z,1.81
2022-12-03T00:05:34.180Z,1.81
2022-12-03T00:08:36.801Z,1.79
2022-12-03T00:11:39.763Z,1.86
2022-12-03T00:14:52.290Z,1.74
2022-12-03T00:17:55.147Z,1.79
2022-12-03T00:20:57.991Z,1.85
2022-12-03T00:24:00.763Z,1.71
2022-12-03T00:27:03.727Z,1.61
2022-12-03T00:30:08.044Z,1.67
2022-12-03T00:33:10.759Z,1.64
2022-12-03T00:36:13.451Z,1.55
2022-12-03T00:39:16.321Z,1.61
2022-12-03T00:42:19.125Z,1.68
2022-12-03T00:45:21.811Z,1.72
2022-12-03T00:48:24.543Z,1.74
2022-12-03T00:51:27.777Z,1.76
2022-12-03T00:54:32.314Z,1.78
2022-12-03T00:57:35.175Z,1.78
2022-12-03T01:00:38.114Z,1.78
2022-12-03T01:03:40.715Z,1.68
2022-12-03T01:06:43.972Z,1.72
2022-12-03T01:09:46.478Z,1.70
2022-12-03T01:12:49.241Z,1.73
2022-12-03T01:15:51.874Z,1.73
2022-12-03T01:18:54.966Z,1.72
2022-12-03T01:21:57.537Z,1.67
2022-12-03T01:25:00.371Z,1.63
2022-12-03T01:28:03.008Z,1.70
2022-12-03T01:31:24.281Z,1.69
2022-12-03T01:34:26.940Z,1.69
2022-12-03T01:37:29.956Z,1.76
2022-12-03T01:40:32.720Z,1.80
2022-12-03T01:43:36.016Z,1.80
2022-12-03T01:46:40.747Z,1.79
2022-12-03T01:50:01.772Z,1.80
2022-12-03T01:53:05.077Z,1.82
2022-12-03T01:56:09.591Z,1.78
2022-12-03T01:59:18.509Z,1.76
2022-12-03T02:02:26.219Z,1.73
2022-12-03T02:05:31.273Z,1.77
2022-12-03T02:08:36.789Z,1.73
2022-12-03T02:11:44.226Z,1.70
2022-12-03T02:14:47.871Z,1.73
2022-12-03T02:17:53.267Z,1.76
2022-12-03T02:21:19.224Z,1.74
2022-12-03T02:24:44.718Z,1.78
2022-12-03T02:27:48.647Z,1.79
2022-12-03T02:30:51.554Z,1.83
2022-12-03T02:33:54.373Z,1.77
2022-12-03T02:36:56.899Z,1.77
2022-12-03T02:40:07.046Z,1.78
2022-12-03T02:43:10.635Z,1.73
2022-12-03T02:46:13.606Z,1.72
2022-12-03T02:49:16.310Z,1.81
2022-12-03T02:52:19.700Z,1.79
2022-12-03T02:55:23.487Z,1.76
2022-12-03T02:58:29.252Z,1.78
2022-12-03T03:01:32.711Z,1.77
2022-12-03T03:04:35.779Z,1.84
2022-12-03T03:07:39.656Z,1.85
2022-12-03T03:10:43.669Z,1.86
2022-12-03T03:13:46.413Z,1.86
2022-12-03T03:16:56.321Z,1.93
2022-12-03T03:19:59.231Z,1.90
2022-12-03T03:23:20.599Z,1.87
2022-12-03T03:26:23.264Z,1.78
2022-12-03T03:29:26.412Z,1.75
2022-12-03T03:32:30.476Z,1.76
2022-12-03T03:35:33.691Z,1.73
2022-12-03T03:38:37.053Z,1.74
2022-12-03T03:41:44.827Z,1.76
2022-12-03T03:44:48.216Z,1.73
2022-12-03T03:47:51.122Z,1.71
2022-12-03T03:50:53.962Z,1.67
2022-12-03T03:53:56.858Z,1.68
2022-12-03T03:56:59.986Z,1.73
2022-12-03T04:00:03.025Z,1.69
2022-12-03T04:03:10.098Z,1.64
2022-12-03T04:06:13.106Z,1.69
2022-12-03T04:09:15.583Z,1.68
2022-12-03T04:12:37.071Z,1.65
2022-12-03T04:15:39.569Z,1.52
2022-12-03T04:18:45.481Z,1.53
2022-12-03T04:22:26.488Z,1.45
2022-12-03T04:25:47.923Z,1.32
2022-12-03T04:28:50.781Z,1.25
2022-12-03T04:32:12.408Z,1.12
2022-12-03T04:35:34.040Z,1.10
2022-12-03T04:38:36.975Z,1.02
2022-12-03T04:41:39.781Z,0.99
2022-12-03T04:44:42.826Z,0.94
2022-12-03T04:47:45.542Z,0.89
2022-12-03T04:50:48.666Z,0.84
2022-12-03T04:53:51.343Z,0.72
2022-12-03T04:56:54.140Z,0.71
2022-12-03T04:59:57.043Z,0.73
2022-12-03T05:02:59.873Z,0.75
2022-12-03T05:06:02.662Z,0.69
2022-12-03T05:09:05.579Z,0.62
2022-12-03T05:12:07.978Z,0.60
2022-12-03T05:15:11.762Z,0.60
2022-12-03T05:18:14.237Z,0.58
2022-12-03T05:21:17.293Z,0.51
2022-12-03T05:24:19.782Z,0.46
2022-12-03T05:27:24.185Z,0.44
2022-12-03T05:30:26.983Z,0.40
2022-12-03T05:33:29.907Z,0.34
2022-12-03T05:36:32.337Z,0.27
2022-12-03T05:39:35.158Z,0.26
2022-12-03T05:42:56.518Z,0.23
2022-12-03T05:45:59.642Z,0.27
2022-12-03T05:49:02.290Z,0.28
2022-12-03T05:52:05.544Z,0.21
2022-12-03T05:55:08.791Z,0.09
2022-12-03T05:58:12.427Z,-0.01
2022-12-03T06:01:15.100Z,0.00
2022-12-03T06:04:17.872Z,0.05
2022-12-03T06:07:20.310Z,0.04
2022-12-03T06:10:25.456Z,0.08
2022-12-03T06:13:27.835Z,0.12
2022-12-03T06:16:30.904Z,0.08
2022-12-03T06:19:33.847Z,-0.02
2022-12-03T06:22:36.858Z,0.03
2022-12-03T06:25:39.611Z,0.05
2022-12-03T06:28:46.607Z,0.13
2022-12-03T06:31:49.300Z,0.17
2022-12-03T06:34:52.354Z,0.21
2022-12-03T06:37:55.297Z,0.20
2022-12-03T06:40:58.363Z,0.17
2022-12-03T06:44:00.825Z,0.06
2022-12-03T06:47:04.079Z,0.23
2022-12-03T06:50:08.424Z,0.37
2022-12-03T06:53:11.315Z,0.52
2022-12-03T06:56:14.127Z,0.68
2022-12-03T06:59:16.783Z,0.79
2022-12-03T07:02:20.576Z,0.88
2022-12-03T07:05:23.194Z,1.05
2022-12-03T07:08:25.914Z,1.01
2022-12-03T07:11:31.818Z,1.15
2022-12-03T07:14:34.279Z,1.31
2022-12-03T07:17:36.908Z,1.68
2022-12-03T07:20:39.512Z,1.92
2022-12-03T07:23:42.295Z,2.14
2022-12-03T07:26:44.985Z,2.39
2022-12-03T07:29:47.687Z,2.77
2022-12-03T07:32:50.395Z,3.27
2022-12-03T07:35:53.183Z,4.03
2022-12-03T07:38:55.801Z,4.47
2022-12-03T07:41:58.935Z,4.89
2022-12-03T07:45:01.439Z,4.95
2022-12-03T07:48:04.317Z,5.21
2022-12-03T07:51:06.900Z,5.30
2022-12-03T07:54:09.909Z,5.17
2022-12-03T07:57:12.478Z,5.32
2022-12-03T08:00:15.811Z,5.12
2022-12-03T08:03:18.577Z,5.43
2022-12-03T08:06:21.812Z,5.98
2022-12-03T08:09:24.599Z,6.53
2022-12-03T08:12:40.514Z,6.99
2022-12-03T08:15:43.430Z,7.05
2022-12-03T08:18:47.505Z,7.19
2022-12-03T08:21:50.261Z,6.91
2022-12-03T08:24:54.418Z,7.05
2022-12-03T08:28:16.357Z,7.89
2022-12-03T08:31:32.908Z,8.13
2022-12-03T08:34:42.311Z,8.41
2022-12-03T08:37:45.011Z,8.99
2022-12-03T08:40:50.064Z,9.34
2022-12-03T08:43:52.783Z,9.38
2022-12-03T08:47:19.816Z,9.80
2022-12-03T08:50:32.008Z,10.74
2022-12-03T08:53:41.601Z,10.55
2022-12-03T08:56:45.119Z,10.70
2022-12-03T08:59:47.950Z,10.68
2022-12-03T09:02:53.072Z,10.75
2022-12-03T09:05:55.756Z,11.01
2022-12-03T09:09:01.186Z,11.65
2022-12-03T09:12:07.882Z,10.97
2022-12-03T09:15:11.163Z,11.09
2022-12-03T09:18:14.658Z,10.90
2022-12-03T09:21:17.700Z,11.32
2022-12-03T09:24:20.637Z,11.58
2022-12-03T09:27:23.680Z,11.47
2022-12-03T09:30:26.132Z,11.33
2022-12-03T09:33:29.612Z,11.71
2022-12-03T09:36:32.428Z,11.19
2022-12-03T09:39:35.619Z,10.94
2022-12-03T09:42:38.454Z,11.15
2022-12-03T09:45:41.580Z,10.96
2022-12-03T09:48:44.143Z,11.00
2022-12-03T09:51:46.944Z,11.35
2022-12-03T09:54:49.847Z,11.63
2022-12-03T09:57:54.300Z,11.06
2022-12-03T10:00:57.339Z,10.94
2022-12-03T10:04:00.097Z,11.74
2022-12-03T10:07:02.767Z,12.18
2022-12-03T10:10:08.017Z,12.34
2022-12-03T10:13:26.219Z,12.51
2022-12-03T10:16:30.610Z,12.44
2022-12-03T10:19:35.806Z,13.03
2022-12-03T10:22:38.785Z,13.17
2022-12-03T10:26:04.164Z,13.00
2022-12-03T10:29:34.915Z,13.37
2022-12-03T10:32:49.055Z,13.32
2022-12-03T10:35:51.665Z,13.24
2022-12-03T10:39:15.269Z,13.10
2022-12-03T10:42:19.451Z,12.68
2022-12-03T10:45:23.147Z,12.53
2022-12-03T10:48:27.685Z,12.61
2022-12-03T10:51:30.982Z,12.13
2022-12-03T10:54:35.574Z,11.86
2022-12-03T10:57:42.376Z,11.62
2022-12-03T11:00:48.547Z,12.24
2022-12-03T11:03:52.198Z,12.42
2022-12-03T11:06:55.623Z,12.21
2022-12-03T11:10:00.193Z,11.73
2022-12-03T11:13:44.408Z,11.47
2022-12-03T11:16:46.756Z,11.52
2022-12-03T11:19:50.107Z,11.58
2022-12-03T11:22:54.025Z,11.71
2022-12-03T11:25:56.699Z,11.64
2022-12-03T11:28:59.827Z,11.41
2022-12-03T11:32:02.469Z,11.42
2022-12-03T11:35:23.161Z,11.34
2022-12-03T11:38:55.540Z,10.71
2022-12-03T11:42:25.943Z,11.14
2022-12-03T11:45:32.309Z,11.29
2022-12-03T11:48:44.298Z,11.41
2022-12-03T11:51:47.251Z,11.43
2022-12-03T11:54:53.949Z,11.11
2022-12-03T11:58:05.299Z,11.04
2022-12-03T12:01:08.521Z,11.14
2022-12-03T12:04:35.223Z,11.16
2022-12-03T12:07:37.960Z,11.15
2022-12-03T12:10:49.101Z,11.29
2022-12-03T12:13:54.686Z,11.39
2022-12-03T12:16:58.667Z,11.79
2022-12-03T12:20:28.035Z,11.74
2022-12-03T12:23:30.577Z,11.47
2022-12-03T12:26:33.059Z,11.66
2022-12-03T12:29:37.072Z,11.60
2022-12-03T12:33:11.207Z,11.85
2022-12-03T12:36:14.145Z,11.74
2022-12-03T12:39:16.627Z,11.63
2022-12-03T12:42:38.602Z,11.68
2022-12-03T12:45:43.297Z,11.45
2022-12-03T12:48:45.883Z,11.34
2022-12-03T12:51:49.647Z,11.28
2022-12-03T12:54:52.281Z,11.22
2022-12-03T12:58:11.435Z,11.21
2022-12-03T13:01:32.438Z,11.00
2022-12-03T13:04:40.011Z,11.18
2022-12-03T13:07:44.208Z,10.98
2022-12-03T13:10:47.741Z,10.92
2022-12-03T13:13:51.050Z,10.92
2022-12-03T13:16:56.667Z,10.58
2022-12-03T13:20:07.582Z,10.40
2022-12-03T13:23:28.026Z,9.74
2022-12-03T13:26:40.076Z,9.82
2022-12-03T13:29:43.162Z,9.84
2022-12-03T13:32:45.642Z,9.66
2022-12-03T13:35:48.326Z,9.75
2022-12-03T13:38:51.153Z,9.64
2022-12-03T13:42:13.551Z,9.55
2022-12-03T13:45:19.045Z,9.48
2022-12-03T13:48:23.851Z,9.17
2022-12-03T13:51:29.829Z,9.00
2022-12-03T13:54:32.912Z,8.78
2022-12-03T13:57:35.417Z,8.65
2022-12-03T14:00:39.284Z,8.45
2022-12-03T14:03:41.961Z,8.22
2022-12-03T14:06:44.625Z,8.12
2022-12-03T14:09:47.135Z,7.94
2022-12-03T14:12:50.163Z,7.80
2022-12-03T14:15:52.625Z,7.62
2022-12-03T14:18:55.614Z,7.40
2022-12-03T14:22:00.232Z,7.24
2022-12-03T14:25:02.878Z,7.06
2022-12-03T14:28:08.705Z,6.87
2022-12-03T14:31:11.709Z,6.75
2022-12-03T14:34:14.306Z,6.58
2022-12-03T14:37:17.789Z,6.44
2022-12-03T14:40:22.006Z,6.19
2022-12-03T14:43:25.210Z,6.07
2022-12-03T14:46:27.844Z,5.82
2022-12-03T14:49:31.759Z,5.66
2022-12-03T14:52:36.559Z,5.58
2022-12-03T14:55:39.199Z,5.50
2022-12-03T14:58:41.869Z,5.31
2022-12-03T15:01:44.705Z,5.06
2022-12-03T15:04:47.347Z,5.04
2022-12-03T15:07:50.487Z,5.03
2022-12-03T15:10:52.947Z,4.95
2022-12-03T15:13:55.839Z,4.84
2022-12-03T15:16:58.767Z,4.64
2022-12-03T15:20:01.855Z,4.57
2022-12-03T15:23:06.304Z,4.45
2022-12-03T15:26:10.719Z,4.36
2022-12-03T15:29:13.524Z,4.33
2022-12-03T15:32:16.363Z,4.04
2022-12-03T15:35:19.036Z,3.79
2022-12-03T15:38:21.752Z,3.64
2022-12-03T15:41:28.956Z,3.61
2022-12-03T15:44:31.935Z,3.73
2022-12-03T15:47:34.434Z,3.80
2022-12-03T15:50:40.304Z,3.73
2022-12-03T15:53:43.170Z,3.80
2022-12-03T15:56:46.234Z,3.78
2022-12-03T15:59:49.075Z,3.64
2022-12-03T16:02:53.055Z,3.53
2022-12-03T16:05:56.030Z,3.45
2022-12-03T16:08:59.106Z,3.28
2022-12-03T16:12:01.921Z,3.27
2022-12-03T16:15:05.335Z,3.27
2022-12-03T16:18:08.113Z,3.17
2022-12-03T16:21:11.063Z,3.14
2022-12-03T16:24:13.651Z,3.04
2022-12-03T16:27:16.390Z,2.98
2022-12-03T16:30:19.218Z,2.93
2022-12-03T16:33:27.209Z,2.84
2022-12-03T16:36:30.589Z,2.83
2022-12-03T16:39:33.396Z,2.83
2022-12-03T16:42:37.348Z,2.70
2022-12-03T16:45:46.479Z,2.72
2022-12-03T16:48:49.543Z,2.62
2022-12-03T16:51:52.797Z,2.61
2022-12-03T16:54:55.434Z,2.57
2022-12-03T16:57:58.326Z,2.51
2022-12-03T17:01:00.966Z,2.57
2022-12-03T17:04:04.950Z,2.49
2022-12-03T17:07:07.625Z,2.46
2022-12-03T17:10:11.419Z,2.33
2022-12-03T17:13:15.359Z,2.36
2022-12-03T17:16:18.553Z,2.23
2022-12-03T17:19:21.142Z,2.39
2022-12-03T17:22:23.967Z,2.40
2022-12-03T17:25:27.339Z,2.29
2022-12-03T17:28:30.515Z,2.31
2022-12-03T17:31:38.386Z,2.28
2022-12-03T17:34:44.474Z,2.23
2022-12-03T17:37:47.184Z,2.30
2022-12-03T17:40:50.499Z,2.25
2022-12-03T17:43:53.915Z,2.25
2022-12-03T17:46:57.047Z,2.15
2022-12-03T17:49:59.822Z,2.11
2022-12-03T17:53:05.542Z,2.18
2022-12-03T17:56:08.136Z,2.18
2022-12-03T17:59:12.013Z,2.03
2022-12-03T18:02:15.257Z,2.03
2022-12-03T18:05:18.599Z,2.00
2022-12-03T18:08:21.303Z,1.98
2022-12-03T18:11:24.449Z,1.94
2022-12-03T18:14:27.236Z,1.99
2022-12-03T18:17:30.360Z,1.93
2022-12-03T18:20:33.108Z,1.86
2022-12-03T18:23:36.208Z,1.92
2022-12-03T18:26:38.945Z,1.88
2022-12-03T18:29:41.651Z,1.85
2022-12-03T18:32:44.586Z,1.87
2022-12-03T18:35:47.691Z,1.81
2022-12-03T18:38:53.058Z,1.79
2022-12-03T18:41:56.239Z,1.75
2022-12-03T18:44:59.727Z,1.76
2022-12-03T18:48:02.939Z,1.73
2022-12-03T18:51:17.808Z,1.66
2022-12-03T18:54:20.959Z,1.72
2022-12-03T18:57:23.739Z,1.67
2022-12-03T19:00:27.081Z,1.66
2022-12-03T19:03:30.777Z,1.64
2022-12-03T19:06:33.473Z,1.56
2022-12-03T19:09:36.324Z,1.54
2022-12-03T19:12:39.662Z,1.53
2022-12-03T19:15:42.527Z,1.54
2022-12-03T19:18:46.252Z,1.49
2022-12-03T19:21:48.790Z,1.43
2022-12-03T19:24:52.466Z,1.45
2022-12-03T19:27:57.026Z,1.42
2022-12-03T19:31:02.914Z,1.39
2022-12-03T19:34:05.900Z,1.30
2022-12-03T19:37:08.840Z,1.32
2022-12-03T19:40:12.064Z,1.41
2022-12-03T19:43:15.063Z,1.32
2022-12-03T19:46:20.175Z,1.23
2022-12-03T19:49:24.124Z,1.32
2022-12-03T19:52:27.034Z,1.39
2022-12-03T19:55:30.507Z,1.25
2022-12-03T19:58:33.787Z,1.24
2022-12-03T20:01:40.496Z,1.29
2022-12-03T20:04:43.611Z,1.13
2022-12-03T20:07:46.545Z,1.17
2022-12-03T20:10:50.152Z,1.11
2022-12-03T20:13:55.603Z,1.15
2022-12-03T20:16:58.892Z,1.15
2022-12-03T20:20:02.447Z,1.14
2022-12-03T20:23:05.313Z,1.07
2022-12-03T20:26:17.115Z,1.13
2022-12-03T20:29:22.096Z,1.13
2022-12-03T20:32:25.151Z,1.04
2022-12-03T20:35:28.154Z,0.87
2022-12-03T20:38:32.452Z,0.95
2022-12-03T20:41:36.097Z,0.87
2022-12-03T20:44:39.256Z,0.94
2022-12-03T20:47:42.088Z,0.95
2022-12-03T20:50:45.084Z,1.02
2022-12-03T20:53:48.035Z,1.08
2022-12-03T20:56:51.264Z,1.02
2022-12-03T20:59:56.977Z,1.06
2022-12-03T21:03:00.138Z,1.15
2022-12-03T21:06:03.144Z,1.14
2022-12-03T21:09:07.382Z,1.04
2022-12-03T21:12:10.129Z,1.13
2022-12-03T21:15:12.807Z,1.12
2022-12-03T21:18:17.015Z,1.03
2022-12-03T21:21:21.117Z,1.24
2022-12-03T21:24:23.867Z,1.08
2022-12-03T21:27:26.792Z,0.98
2022-12-03T21:30:29.864Z,1.12
2022-12-03T21:33:33.444Z,1.03
2022-12-03T21:36:36.630Z,1.15
2022-12-03T21:39:40.595Z,1.14
2022-12-03T21:42:43.253Z,1.07
2022-12-03T21:45:46.491Z,1.11
2022-12-03T21:48:50.117Z,1.14
2022-12-03T21:51:52.783Z,1.17
2022-12-03T21:54:56.002Z,1.16
2022-12-03T21:57:59.116Z,1.07
2022-12-03T22:01:15.649Z,1.04
2022-12-03T22:04:18.775Z,0.88
2022-12-03T22:07:21.411Z,0.84
2022-12-03T22:10:24.361Z,0.94
2022-12-03T22:13:27.096Z,1.00
2022-12-03T22:16:30.365Z,1.05
2022-12-03T22:19:32.882Z,0.99
2022-12-03T22:22:35.762Z,0.94
2022-12-03T22:25:38.188Z,0.91
2022-12-03T22:28:45.314Z,0.84
2022-12-03T22:31:47.945Z,0.75
2022-12-03T22:34:50.727Z,0.77
2022-12-03T22:37:53.611Z,0.80
2022-12-03T22:40:56.755Z,0.77
2022-12-03T22:43:59.443Z,0.69
2022-12-03T22:47:02.391Z,0.75
2022-12-03T22:50:05.563Z,0.79
2022-12-03T22:53:08.509Z,0.89
2022-12-03T22:56:11.356Z,0.79
2022-12-03T22:59:14.263Z,0.71
2022-12-03T23:02:17.066Z,0.64
2022-12-03T23:05:19.821Z,0.64
2022-12-03T23:08:22.709Z,0.59
2022-12-03T23:11:26.853Z,0.65
2022-12-03T23:14:29.681Z,0.73
2022-12-03T23:17:32.751Z,0.71
2022-12-03T23:20:45.258Z,0.65
2022-12-03T23:23:48.025Z,0.72
2022-12-03T23:26:50.595Z,0.75
2022-12-03T23:29:54.019Z,0.74
2022-12-03T23:32:57.147Z,0.64
2022-12-03T23:35:59.770Z,0.66
2022-12-03T23:39:02.831Z,0.68
2022-12-03T23:42:05.540Z,0.68
2022-12-03T23:45:08.572Z,0.66
2022-12-03T23:48:11.447Z,0.77
2022-12-03T23:51:17.115Z,0.65
2022-12-03T23:54:20.055Z,0.74
2022-12-03T23:57:22.503Z,0.79
